sensor_id;sensor_type;location;lat;lon;timestamp;temperature;humidity
11221;DHT22;8517;53.546;10.104;2022-08-19T00:01:36;23.20;99.90
11221;DHT22;8517;53.546;10.104;2022-08-19T00:04:07;23.20;99.90
11221;DHT22;8517;53.546;10.104;2022-08-19T00:06:35;23.20;99.90
11221;DHT22;8517;53.546;10.104;2022-08-19T00:09:04;23.10;99.90
11221;DHT22;8517;53.546;10.104;2022-08-19T00:11:31;23.10;99.90
11221;DHT22;8517;53.546;10.104;2022-08-19T00:14:00;23.10;99.90
11221;DHT22;8517;53.546;10.104;2022-08-19T00:16:28;23.10;99.90
11221;DHT22;8517;53.546;10.104;2022-08-19T00:18:55;23.00;99.90
11221;DHT22;8517;53.546;10.104;2022-08-19T00:21:22;23.00;99.90
11221;DHT22;8517;53.546;10.104;2022-08-19T00:23:49;23.00;99.90
11221;DHT22;8517;53.546;10.104;2022-08-19T00:26:16;23.00;99.90
11221;DHT22;8517;53.546;10.104;2022-08-19T00:28:42;22.90;99.90
11221;DHT22;8517;53.546;10.104;2022-08-19T00:31:10;22.90;99.90
11221;DHT22;8517;53.546;10.104;2022-08-19T00:33:38;22.90;99.90
11221;DHT22;8517;53.546;10.104;2022-08-19T00:36:07;22.90;99.90
11221;DHT22;8517;53.546;10.104;2022-08-19T00:38:36;22.90;99.90
11221;DHT22;8517;53.546;10.104;2022-08-19T00:41:03;22.90;99.90
11221;DHT22;8517;53.546;10.104;2022-08-19T00:43:30;22.90;99.90
11221;DHT22;8517;53.546;10.104;2022-08-19T00:45:57;22.90;99.90
11221;DHT22;8517;53.546;10.104;2022-08-19T00:48:24;22.90;99.90
11221;DHT22;8517;53.546;10.104;2022-08-19T00:50:53;22.90;99.90
11221;DHT22;8517;53.546;10.104;2022-08-19T00:53:24;22.90;99.90
11221;DHT22;8517;53.546;10.104;2022-08-19T00:55:54;22.90;99.90
11221;DHT22;8517;53.546;10.104;2022-08-19T00:58:28;22.90;99.90
11221;DHT22;8517;53.546;10.104;2022-08-19T01:00:56;22.90;99.90
11221;DHT22;8517;53.546;10.104;2022-08-19T01:03:23;22.90;99.90
11221;DHT22;8517;53.546;10.104;2022-08-19T01:05:52;22.90;99.90
11221;DHT22;8517;53.546;10.104;2022-08-19T01:08:20;22.90;99.90
11221;DHT22;8517;53.546;10.104;2022-08-19T01:10:49;22.90;99.90
11221;DHT22;8517;53.546;10.104;2022-08-19T01:13:17;22.90;99.90
11221;DHT22;8517;53.546;10.104;2022-08-19T01:15:48;22.90;99.90
11221;DHT22;8517;53.546;10.104;2022-08-19T01:18:18;22.90;99.90
11221;DHT22;8517;53.546;10.104;2022-08-19T01:20:46;22.80;99.90
11221;DHT22;8517;53.546;10.104;2022-08-19T01:23:15;22.80;99.90
11221;DHT22;8517;53.546;10.104;2022-08-19T01:25:46;22.80;99.90
11221;DHT22;8517;53.546;10.104;2022-08-19T01:28:17;22.80;99.90
11221;DHT22;8517;53.546;10.104;2022-08-19T01:30:44;22.80;99.90
11221;DHT22;8517;53.546;10.104;2022-08-19T01:33:12;22.80;99.90
11221;DHT22;8517;53.546;10.104;2022-08-19T01:35:40;22.70;99.90
11221;DHT22;8517;53.546;10.104;2022-08-19T01:38:09;22.70;99.90
11221;DHT22;8517;53.546;10.104;2022-08-19T01:40:39;22.70;99.90
11221;DHT22;8517;53.546;10.104;2022-08-19T01:43:07;22.70;99.90
11221;DHT22;8517;53.546;10.104;2022-08-19T01:45:35;22.70;99.90
11221;DHT22;8517;53.546;10.104;2022-08-19T01:48:03;22.70;99.90
11221;DHT22;8517;53.546;10.104;2022-08-19T01:50:31;22.70;99.90
11221;DHT22;8517;53.546;10.104;2022-08-19T01:52:58;22.70;99.90
11221;DHT22;8517;53.546;10.104;2022-08-19T01:55:26;22.70;99.90
11221;DHT22;8517;53.546;10.104;2022-08-19T01:57:57;22.70;99.90
11221;DHT22;8517;53.546;10.104;2022-08-19T02:00:27;22.70;99.90
11221;DHT22;8517;53.546;10.104;2022-08-19T02:02:56;22.60;99.90
11221;DHT22;8517;53.546;10.104;2022-08-19T02:05:23;22.60;99.90
11221;DHT22;8517;53.546;10.104;2022-08-19T02:07:50;22.70;99.90
11221;DHT22;8517;53.546;10.104;2022-08-19T02:10:20;22.70;99.90
11221;DHT22;8517;53.546;10.104;2022-08-19T02:12:47;22.70;99.90
11221;DHT22;8517;53.546;10.104;2022-08-19T02:15:16;22.70;99.90
11221;DHT22;8517;53.546;10.104;2022-08-19T02:17:44;22.70;99.90
11221;DHT22;8517;53.546;10.104;2022-08-19T02:20:11;22.70;99.90
11221;DHT22;8517;53.546;10.104;2022-08-19T02:22:38;22.70;99.90
11221;DHT22;8517;53.546;10.104;2022-08-19T02:25:08;22.70;99.90
11221;DHT22;8517;53.546;10.104;2022-08-19T02:27:35;22.70;99.90
11221;DHT22;8517;53.546;10.104;2022-08-19T02:30:03;22.70;99.90
11221;DHT22;8517;53.546;10.104;2022-08-19T02:32:31;22.60;99.90
11221;DHT22;8517;53.546;10.104;2022-08-19T02:34:58;22.60;99.90
11221;DHT22;8517;53.546;10.104;2022-08-19T02:37:25;22.60;99.90
11221;DHT22;8517;53.546;10.104;2022-08-19T02:40:10;22.60;99.90
11221;DHT22;8517;53.546;10.104;2022-08-19T02:42:37;22.50;99.90
11221;DHT22;8517;53.546;10.104;2022-08-19T02:45:06;22.50;99.90
11221;DHT22;8517;53.546;10.104;2022-08-19T02:47:34;22.50;99.90
11221;DHT22;8517;53.546;10.104;2022-08-19T02:50:02;22.50;99.90
11221;DHT22;8517;53.546;10.104;2022-08-19T02:52:29;22.50;99.90
11221;DHT22;8517;53.546;10.104;2022-08-19T02:54:57;22.50;99.90
11221;DHT22;8517;53.546;10.104;2022-08-19T02:57:24;22.50;99.90
11221;DHT22;8517;53.546;10.104;2022-08-19T02:59:51;22.50;99.90
11221;DHT22;8517;53.546;10.104;2022-08-19T03:02:18;22.50;99.90
11221;DHT22;8517;53.546;10.104;2022-08-19T03:04:46;22.50;99.90
11221;DHT22;8517;53.546;10.104;2022-08-19T03:07:14;22.50;99.90
11221;DHT22;8517;53.546;10.104;2022-08-19T03:09:41;22.50;99.90
11221;DHT22;8517;53.546;10.104;2022-08-19T03:12:09;22.50;99.90
11221;DHT22;8517;53.546;10.104;2022-08-19T03:14:37;22.40;99.90
11221;DHT22;8517;53.546;10.104;2022-08-19T03:17:04;22.40;99.90
11221;DHT22;8517;53.546;10.104;2022-08-19T03:19:31;22.40;99.90
11221;DHT22;8517;53.546;10.104;2022-08-19T03:21:59;22.40;99.90
11221;DHT22;8517;53.546;10.104;2022-08-19T03:24:29;22.40;99.90
11221;DHT22;8517;53.546;10.104;2022-08-19T03:26:57;22.40;99.90
11221;DHT22;8517;53.546;10.104;2022-08-19T03:29:24;22.40;99.90
11221;DHT22;8517;53.546;10.104;2022-08-19T03:31:51;22.40;99.90
11221;DHT22;8517;53.546;10.104;2022-08-19T03:34:20;22.40;99.90
11221;DHT22;8517;53.546;10.104;2022-08-19T03:36:47;22.40;99.90
11221;DHT22;8517;53.546;10.104;2022-08-19T03:39:16;22.40;99.90
11221;DHT22;8517;53.546;10.104;2022-08-19T03:41:45;22.40;99.90
11221;DHT22;8517;53.546;10.104;2022-08-19T03:44:12;22.40;99.90
11221;DHT22;8517;53.546;10.104;2022-08-19T03:46:39;22.40;99.90
11221;DHT22;8517;53.546;10.104;2022-08-19T03:49:06;22.30;99.90
11221;DHT22;8517;53.546;10.104;2022-08-19T03:51:35;22.40;99.90
11221;DHT22;8517;53.546;10.104;2022-08-19T03:54:05;22.30;99.90
11221;DHT22;8517;53.546;10.104;2022-08-19T03:56:35;22.30;99.90
11221;DHT22;8517;53.546;10.104;2022-08-19T03:59:04;22.30;99.90
11221;DHT22;8517;53.546;10.104;2022-08-19T04:01:31;22.30;99.90
11221;DHT22;8517;53.546;10.104;2022-08-19T04:03:58;22.30;99.90
11221;DHT22;8517;53.546;10.104;2022-08-19T04:06:28;22.30;99.90
11221;DHT22;8517;53.546;10.104;2022-08-19T04:08:56;22.30;99.90
11221;DHT22;8517;53.546;10.104;2022-08-19T04:11:26;22.20;99.90
11221;DHT22;8517;53.546;10.104;2022-08-19T04:13:55;22.20;99.90
11221;DHT22;8517;53.546;10.104;2022-08-19T04:16:24;22.20;99.90
11221;DHT22;8517;53.546;10.104;2022-08-19T04:18:54;22.20;99.90
11221;DHT22;8517;53.546;10.104;2022-08-19T04:21:24;22.20;99.90
11221;DHT22;8517;53.546;10.104;2022-08-19T04:23:51;22.20;99.90
11221;DHT22;8517;53.546;10.104;2022-08-19T04:26:21;22.30;99.90
11221;DHT22;8517;53.546;10.104;2022-08-19T04:28:48;22.30;99.90
11221;DHT22;8517;53.546;10.104;2022-08-19T04:31:19;22.30;99.90
11221;DHT22;8517;53.546;10.104;2022-08-19T04:33:46;22.30;99.90
11221;DHT22;8517;53.546;10.104;2022-08-19T04:36:17;22.30;99.90
11221;DHT22;8517;53.546;10.104;2022-08-19T04:38:46;22.30;99.90
11221;DHT22;8517;53.546;10.104;2022-08-19T04:41:13;22.30;99.90
11221;DHT22;8517;53.546;10.104;2022-08-19T04:43:57;22.30;99.90
11221;DHT22;8517;53.546;10.104;2022-08-19T04:46:25;22.30;99.90
11221;DHT22;8517;53.546;10.104;2022-08-19T04:48:55;22.40;99.90
11221;DHT22;8517;53.546;10.104;2022-08-19T04:51:23;22.40;99.90
11221;DHT22;8517;53.546;10.104;2022-08-19T04:53:50;22.40;99.90
11221;DHT22;8517;53.546;10.104;2022-08-19T04:56:19;22.40;99.90
11221;DHT22;8517;53.546;10.104;2022-08-19T04:58:45;22.40;99.90
11221;DHT22;8517;53.546;10.104;2022-08-19T05:01:17;22.40;99.90
11221;DHT22;8517;53.546;10.104;2022-08-19T05:03:45;22.40;99.90
11221;DHT22;8517;53.546;10.104;2022-08-19T05:06:14;22.40;99.90
11221;DHT22;8517;53.546;10.104;2022-08-19T05:08:42;22.40;99.90
11221;DHT22;8517;53.546;10.104;2022-08-19T05:11:12;22.30;99.90
11221;DHT22;8517;53.546;10.104;2022-08-19T05:13:39;22.30;99.90
11221;DHT22;8517;53.546;10.104;2022-08-19T05:16:06;22.30;99.90
11221;DHT22;8517;53.546;10.104;2022-08-19T05:18:33;22.30;99.90
11221;DHT22;8517;53.546;10.104;2022-08-19T05:21:20;22.30;99.90
11221;DHT22;8517;53.546;10.104;2022-08-19T05:24:05;22.30;99.90
11221;DHT22;8517;53.546;10.104;2022-08-19T05:26:34;22.20;99.90
11221;DHT22;8517;53.546;10.104;2022-08-19T05:29:01;22.20;99.90
11221;DHT22;8517;53.546;10.104;2022-08-19T05:31:28;22.20;99.90
11221;DHT22;8517;53.546;10.104;2022-08-19T05:33:55;22.20;99.90
11221;DHT22;8517;53.546;10.104;2022-08-19T05:36:25;22.20;99.90
11221;DHT22;8517;53.546;10.104;2022-08-19T05:38:52;22.10;99.90
11221;DHT22;8517;53.546;10.104;2022-08-19T05:41:20;22.20;99.90
11221;DHT22;8517;53.546;10.104;2022-08-19T05:43:54;22.20;99.90
11221;DHT22;8517;53.546;10.104;2022-08-19T05:46:21;22.20;99.90
11221;DHT22;8517;53.546;10.104;2022-08-19T05:48:48;22.20;99.90
11221;DHT22;8517;53.546;10.104;2022-08-19T05:51:15;22.20;99.90
11221;DHT22;8517;53.546;10.104;2022-08-19T05:53:44;22.20;99.90
11221;DHT22;8517;53.546;10.104;2022-08-19T05:56:14;22.20;99.90
11221;DHT22;8517;53.546;10.104;2022-08-19T05:58:41;22.10;99.90
11221;DHT22;8517;53.546;10.104;2022-08-19T06:01:15;22.20;99.90
11221;DHT22;8517;53.546;10.104;2022-08-19T06:03:42;22.10;99.90
11221;DHT22;8517;53.546;10.104;2022-08-19T06:06:11;22.20;99.90
11221;DHT22;8517;53.546;10.104;2022-08-19T06:08:38;22.20;99.90
11221;DHT22;8517;53.546;10.104;2022-08-19T06:11:15;22.20;99.90
11221;DHT22;8517;53.546;10.104;2022-08-19T06:13:43;22.20;99.90
11221;DHT22;8517;53.546;10.104;2022-08-19T06:16:13;22.10;99.90
11221;DHT22;8517;53.546;10.104;2022-08-19T06:18:48;22.20;99.90
11221;DHT22;8517;53.546;10.104;2022-08-19T06:21:17;22.20;99.90
11221;DHT22;8517;53.546;10.104;2022-08-19T06:23:44;22.10;99.90
11221;DHT22;8517;53.546;10.104;2022-08-19T06:26:15;22.20;99.90
11221;DHT22;8517;53.546;10.104;2022-08-19T06:28:42;22.20;99.90
11221;DHT22;8517;53.546;10.104;2022-08-19T06:31:12;22.20;99.90
11221;DHT22;8517;53.546;10.104;2022-08-19T06:33:40;22.20;99.90
11221;DHT22;8517;53.546;10.104;2022-08-19T06:36:07;22.20;99.90
11221;DHT22;8517;53.546;10.104;2022-08-19T06:38:34;22.20;99.90
11221;DHT22;8517;53.546;10.104;2022-08-19T06:41:02;22.30;99.90
11221;DHT22;8517;53.546;10.104;2022-08-19T06:43:30;22.30;99.90
11221;DHT22;8517;53.546;10.104;2022-08-19T06:45:57;22.30;99.90
11221;DHT22;8517;53.546;10.104;2022-08-19T06:48:24;22.40;99.90
11221;DHT22;8517;53.546;10.104;2022-08-19T06:50:51;22.40;99.90
11221;DHT22;8517;53.546;10.104;2022-08-19T06:53:18;22.50;99.90
11221;DHT22;8517;53.546;10.104;2022-08-19T06:55:45;22.50;99.90
11221;DHT22;8517;53.546;10.104;2022-08-19T06:58:12;22.50;99.90
11221;DHT22;8517;53.546;10.104;2022-08-19T07:00:40;22.50;99.90
11221;DHT22;8517;53.546;10.104;2022-08-19T07:03:07;22.50;99.90
11221;DHT22;8517;53.546;10.104;2022-08-19T07:05:38;22.50;99.90
11221;DHT22;8517;53.546;10.104;2022-08-19T07:08:05;22.50;99.90
11221;DHT22;8517;53.546;10.104;2022-08-19T07:10:33;22.50;99.90
11221;DHT22;8517;53.546;10.104;2022-08-19T07:13:02;22.50;99.90
11221;DHT22;8517;53.546;10.104;2022-08-19T07:15:28;22.50;99.90
11221;DHT22;8517;53.546;10.104;2022-08-19T07:17:57;22.50;99.90
11221;DHT22;8517;53.546;10.104;2022-08-19T07:20:25;22.50;99.90
11221;DHT22;8517;53.546;10.104;2022-08-19T07:22:51;22.50;99.90
11221;DHT22;8517;53.546;10.104;2022-08-19T07:25:18;22.50;99.90
11221;DHT22;8517;53.546;10.104;2022-08-19T07:27:48;22.50;99.90
11221;DHT22;8517;53.546;10.104;2022-08-19T07:30:15;22.50;99.90
11221;DHT22;8517;53.546;10.104;2022-08-19T07:32:42;22.60;99.90
11221;DHT22;8517;53.546;10.104;2022-08-19T07:35:10;22.60;99.90
11221;DHT22;8517;53.546;10.104;2022-08-19T07:37:37;22.60;99.90
11221;DHT22;8517;53.546;10.104;2022-08-19T07:40:10;22.60;99.90
11221;DHT22;8517;53.546;10.104;2022-08-19T07:42:37;22.70;99.90
11221;DHT22;8517;53.546;10.104;2022-08-19T07:45:05;22.70;99.90
11221;DHT22;8517;53.546;10.104;2022-08-19T07:47:33;22.70;99.90
11221;DHT22;8517;53.546;10.104;2022-08-19T07:50:00;22.70;99.90
11221;DHT22;8517;53.546;10.104;2022-08-19T07:52:31;22.80;99.90
11221;DHT22;8517;53.546;10.104;2022-08-19T07:54:57;22.80;99.90
11221;DHT22;8517;53.546;10.104;2022-08-19T07:57:28;22.80;99.90
11221;DHT22;8517;53.546;10.104;2022-08-19T07:59:55;22.80;99.90
11221;DHT22;8517;53.546;10.104;2022-08-19T08:02:22;22.80;99.90
11221;DHT22;8517;53.546;10.104;2022-08-19T08:04:49;22.90;99.90
11221;DHT22;8517;53.546;10.104;2022-08-19T08:07:34;22.90;99.90
11221;DHT22;8517;53.546;10.104;2022-08-19T08:10:18;22.90;99.90
11221;DHT22;8517;53.546;10.104;2022-08-19T08:12:45;22.90;99.90
11221;DHT22;8517;53.546;10.104;2022-08-19T08:15:15;22.80;99.90
11221;DHT22;8517;53.546;10.104;2022-08-19T08:17:44;22.80;99.90
11221;DHT22;8517;53.546;10.104;2022-08-19T08:20:14;22.90;99.90
11221;DHT22;8517;53.546;10.104;2022-08-19T08:22:44;22.90;99.90
11221;DHT22;8517;53.546;10.104;2022-08-19T08:25:29;22.90;99.90
11221;DHT22;8517;53.546;10.104;2022-08-19T08:27:57;23.00;99.90
11221;DHT22;8517;53.546;10.104;2022-08-19T08:30:27;23.00;99.90
11221;DHT22;8517;53.546;10.104;2022-08-19T08:32:55;23.10;99.90
11221;DHT22;8517;53.546;10.104;2022-08-19T08:35:23;23.00;99.90
11221;DHT22;8517;53.546;10.104;2022-08-19T08:37:53;23.00;99.90
11221;DHT22;8517;53.546;10.104;2022-08-19T08:40:26;23.10;99.90
11221;DHT22;8517;53.546;10.104;2022-08-19T08:42:57;23.10;99.90
11221;DHT22;8517;53.546;10.104;2022-08-19T08:45:28;23.10;99.90
11221;DHT22;8517;53.546;10.104;2022-08-19T08:47:58;23.00;99.90
11221;DHT22;8517;53.546;10.104;2022-08-19T08:50:33;23.00;99.90
11221;DHT22;8517;53.546;10.104;2022-08-19T08:53:19;23.00;99.90
11221;DHT22;8517;53.546;10.104;2022-08-19T08:55:47;23.00;99.90
11221;DHT22;8517;53.546;10.104;2022-08-19T08:58:19;23.00;99.90
11221;DHT22;8517;53.546;10.104;2022-08-19T09:01:22;23.00;99.90
11221;DHT22;8517;53.546;10.104;2022-08-19T09:03:58;23.00;99.90
11221;DHT22;8517;53.546;10.104;2022-08-19T09:06:31;23.00;99.90
11221;DHT22;8517;53.546;10.104;2022-08-19T09:09:04;23.00;99.90
11221;DHT22;8517;53.546;10.104;2022-08-19T09:11:45;23.00;99.90
11221;DHT22;8517;53.546;10.104;2022-08-19T09:14:24;23.00;99.90
11221;DHT22;8517;53.546;10.104;2022-08-19T09:16:57;23.00;99.90
11221;DHT22;8517;53.546;10.104;2022-08-19T09:19:24;23.10;99.90
11221;DHT22;8517;53.546;10.104;2022-08-19T09:21:51;23.10;99.90
11221;DHT22;8517;53.546;10.104;2022-08-19T09:24:19;23.10;99.90
11221;DHT22;8517;53.546;10.104;2022-08-19T09:26:46;23.10;99.90
11221;DHT22;8517;53.546;10.104;2022-08-19T09:29:13;23.10;99.90
11221;DHT22;8517;53.546;10.104;2022-08-19T09:31:40;23.10;99.90
11221;DHT22;8517;53.546;10.104;2022-08-19T09:34:07;23.10;99.90
11221;DHT22;8517;53.546;10.104;2022-08-19T09:36:34;23.10;99.90
11221;DHT22;8517;53.546;10.104;2022-08-19T09:39:05;23.10;99.90
11221;DHT22;8517;53.546;10.104;2022-08-19T09:41:33;23.10;99.90
11221;DHT22;8517;53.546;10.104;2022-08-19T09:44:00;23.10;99.90
11221;DHT22;8517;53.546;10.104;2022-08-19T09:46:28;23.10;99.90
11221;DHT22;8517;53.546;10.104;2022-08-19T09:49:00;23.10;99.90
11221;DHT22;8517;53.546;10.104;2022-08-19T09:51:27;23.10;99.90
11221;DHT22;8517;53.546;10.104;2022-08-19T09:53:59;23.10;99.90
11221;DHT22;8517;53.546;10.104;2022-08-19T09:56:25;23.10;99.90
11221;DHT22;8517;53.546;10.104;2022-08-19T10:02:11;23.10;99.90
11221;DHT22;8517;53.546;10.104;2022-08-19T10:04:39;23.20;99.90
11221;DHT22;8517;53.546;10.104;2022-08-19T10:07:23;23.20;99.90
11221;DHT22;8517;53.546;10.104;2022-08-19T10:09:51;23.20;99.90
11221;DHT22;8517;53.546;10.104;2022-08-19T10:12:17;23.20;99.90
11221;DHT22;8517;53.546;10.104;2022-08-19T10:14:44;23.30;99.90
11221;DHT22;8517;53.546;10.104;2022-08-19T10:17:13;23.30;99.90
11221;DHT22;8517;53.546;10.104;2022-08-19T10:19:40;23.30;99.90
11221;DHT22;8517;53.546;10.104;2022-08-19T10:22:07;23.40;99.90
11221;DHT22;8517;53.546;10.104;2022-08-19T10:24:34;23.40;99.90
11221;DHT22;8517;53.546;10.104;2022-08-19T10:27:01;23.40;99.90
11221;DHT22;8517;53.546;10.104;2022-08-19T10:29:29;23.50;99.90
11221;DHT22;8517;53.546;10.104;2022-08-19T10:31:57;23.50;99.90
11221;DHT22;8517;53.546;10.104;2022-08-19T10:34:31;23.50;99.90
11221;DHT22;8517;53.546;10.104;2022-08-19T10:36:59;23.50;99.90
11221;DHT22;8517;53.546;10.104;2022-08-19T10:39:27;23.50;99.90
11221;DHT22;8517;53.546;10.104;2022-08-19T10:41:55;23.60;99.90
11221;DHT22;8517;53.546;10.104;2022-08-19T10:44:22;23.60;99.90
11221;DHT22;8517;53.546;10.104;2022-08-19T10:46:50;23.60;99.90
11221;DHT22;8517;53.546;10.104;2022-08-19T10:49:17;23.60;99.90
11221;DHT22;8517;53.546;10.104;2022-08-19T10:51:46;23.60;99.90
11221;DHT22;8517;53.546;10.104;2022-08-19T10:54:31;23.60;99.90
11221;DHT22;8517;53.546;10.104;2022-08-19T10:57:13;23.60;99.90
11221;DHT22;8517;53.546;10.104;2022-08-19T10:59:40;23.70;99.90
11221;DHT22;8517;53.546;10.104;2022-08-19T11:02:09;23.70;99.90
11221;DHT22;8517;53.546;10.104;2022-08-19T11:04:38;23.70;99.90
11221;DHT22;8517;53.546;10.104;2022-08-19T11:07:07;23.80;99.90
11221;DHT22;8517;53.546;10.104;2022-08-19T11:09:38;23.80;99.90
11221;DHT22;8517;53.546;10.104;2022-08-19T11:12:06;23.80;99.90
11221;DHT22;8517;53.546;10.104;2022-08-19T11:14:34;23.80;99.90
11221;DHT22;8517;53.546;10.104;2022-08-19T11:17:02;23.80;99.90
11221;DHT22;8517;53.546;10.104;2022-08-19T11:19:32;23.80;99.90
11221;DHT22;8517;53.546;10.104;2022-08-19T11:22:02;23.80;99.90
11221;DHT22;8517;53.546;10.104;2022-08-19T11:24:31;23.80;99.90
11221;DHT22;8517;53.546;10.104;2022-08-19T11:27:02;23.80;99.90
11221;DHT22;8517;53.546;10.104;2022-08-19T11:29:30;23.80;99.90
11221;DHT22;8517;53.546;10.104;2022-08-19T11:31:56;23.80;99.90
11221;DHT22;8517;53.546;10.104;2022-08-19T11:34:28;23.80;99.90
11221;DHT22;8517;53.546;10.104;2022-08-19T11:40:12;23.90;99.90
11221;DHT22;8517;53.546;10.104;2022-08-19T11:42:39;23.90;99.90
11221;DHT22;8517;53.546;10.104;2022-08-19T11:45:22;23.90;99.90
11221;DHT22;8517;53.546;10.104;2022-08-19T11:47:49;23.90;99.90
11221;DHT22;8517;53.546;10.104;2022-08-19T11:50:22;23.90;99.90
11221;DHT22;8517;53.546;10.104;2022-08-19T11:53:17;23.90;99.90
11221;DHT22;8517;53.546;10.104;2022-08-19T11:55:46;23.90;99.90
11221;DHT22;8517;53.546;10.104;2022-08-19T11:58:14;24.00;99.90
11221;DHT22;8517;53.546;10.104;2022-08-19T12:00:42;24.00;99.90
11221;DHT22;8517;53.546;10.104;2022-08-19T12:03:11;24.00;99.90
11221;DHT22;8517;53.546;10.104;2022-08-19T12:05:39;24.10;99.90
11221;DHT22;8517;53.546;10.104;2022-08-19T12:08:09;24.20;99.90
11221;DHT22;8517;53.546;10.104;2022-08-19T12:10:38;24.20;99.90
11221;DHT22;8517;53.546;10.104;2022-08-19T12:13:06;24.30;99.90
11221;DHT22;8517;53.546;10.104;2022-08-19T12:15:35;24.30;99.90
11221;DHT22;8517;53.546;10.104;2022-08-19T12:18:02;24.40;99.90
11221;DHT22;8517;53.546;10.104;2022-08-19T12:20:29;24.40;99.90
11221;DHT22;8517;53.546;10.104;2022-08-19T12:22:56;24.40;99.90
11221;DHT22;8517;53.546;10.104;2022-08-19T12:25:22;24.50;99.90
11221;DHT22;8517;53.546;10.104;2022-08-19T12:27:49;24.50;99.90
11221;DHT22;8517;53.546;10.104;2022-08-19T12:30:18;24.50;99.90
11221;DHT22;8517;53.546;10.104;2022-08-19T12:32:45;24.50;99.90
11221;DHT22;8517;53.546;10.104;2022-08-19T12:35:11;24.60;99.90
11221;DHT22;8517;53.546;10.104;2022-08-19T12:37:39;24.60;99.90
11221;DHT22;8517;53.546;10.104;2022-08-19T12:40:10;24.60;99.90
11221;DHT22;8517;53.546;10.104;2022-08-19T12:42:38;24.60;99.90
11221;DHT22;8517;53.546;10.104;2022-08-19T12:45:08;24.70;99.90
11221;DHT22;8517;53.546;10.104;2022-08-19T12:47:37;24.80;99.90
11221;DHT22;8517;53.546;10.104;2022-08-19T12:50:05;24.90;99.90
11221;DHT22;8517;53.546;10.104;2022-08-19T12:52:34;25.00;99.90
11221;DHT22;8517;53.546;10.104;2022-08-19T12:55:03;25.10;99.90
11221;DHT22;8517;53.546;10.104;2022-08-19T12:57:31;25.10;99.90
11221;DHT22;8517;53.546;10.104;2022-08-19T12:59:59;25.20;99.90
11221;DHT22;8517;53.546;10.104;2022-08-19T13:02:26;25.20;99.90
11221;DHT22;8517;53.546;10.104;2022-08-19T13:04:54;25.30;99.90
11221;DHT22;8517;53.546;10.104;2022-08-19T13:07:22;25.30;99.90
11221;DHT22;8517;53.546;10.104;2022-08-19T13:09:54;25.30;99.90
11221;DHT22;8517;53.546;10.104;2022-08-19T13:12:30;25.40;99.90
11221;DHT22;8517;53.546;10.104;2022-08-19T13:14:56;25.40;99.90
11221;DHT22;8517;53.546;10.104;2022-08-19T13:17:52;25.40;99.90
11221;DHT22;8517;53.546;10.104;2022-08-19T13:20:21;25.50;99.90
11221;DHT22;8517;53.546;10.104;2022-08-19T13:22:48;25.50;99.90
11221;DHT22;8517;53.546;10.104;2022-08-19T13:25:15;25.60;99.90
11221;DHT22;8517;53.546;10.104;2022-08-19T13:27:44;25.60;99.90
11221;DHT22;8517;53.546;10.104;2022-08-19T13:30:13;25.70;99.90
11221;DHT22;8517;53.546;10.104;2022-08-19T13:33:11;25.70;99.90
11221;DHT22;8517;53.546;10.104;2022-08-19T13:35:47;25.80;99.90
11221;DHT22;8517;53.546;10.104;2022-08-19T13:38:20;25.80;99.90
11221;DHT22;8517;53.546;10.104;2022-08-19T13:40:50;25.90;99.90
11221;DHT22;8517;53.546;10.104;2022-08-19T13:43:18;25.90;99.90
11221;DHT22;8517;53.546;10.104;2022-08-19T13:45:46;25.90;99.90
11221;DHT22;8517;53.546;10.104;2022-08-19T13:48:13;26.00;99.90
11221;DHT22;8517;53.546;10.104;2022-08-19T13:50:41;26.00;99.90
11221;DHT22;8517;53.546;10.104;2022-08-19T13:53:11;26.00;99.90
11221;DHT22;8517;53.546;10.104;2022-08-19T13:55:38;26.00;99.90
11221;DHT22;8517;53.546;10.104;2022-08-19T13:58:05;26.00;99.90
11221;DHT22;8517;53.546;10.104;2022-08-19T14:00:36;26.00;99.90
11221;DHT22;8517;53.546;10.104;2022-08-19T14:03:04;26.00;99.90
11221;DHT22;8517;53.546;10.104;2022-08-19T14:05:32;26.00;99.90
11221;DHT22;8517;53.546;10.104;2022-08-19T14:07:58;26.00;99.90
11221;DHT22;8517;53.546;10.104;2022-08-19T14:10:27;26.00;99.90
11221;DHT22;8517;53.546;10.104;2022-08-19T14:12:57;26.00;99.90
11221;DHT22;8517;53.546;10.104;2022-08-19T14:15:25;26.00;99.90
11221;DHT22;8517;53.546;10.104;2022-08-19T14:17:53;26.00;99.90
11221;DHT22;8517;53.546;10.104;2022-08-19T14:20:20;26.00;99.90
11221;DHT22;8517;53.546;10.104;2022-08-19T14:22:48;26.10;99.90
11221;DHT22;8517;53.546;10.104;2022-08-19T14:25:17;26.10;99.90
11221;DHT22;8517;53.546;10.104;2022-08-19T14:27:45;26.10;99.90
11221;DHT22;8517;53.546;10.104;2022-08-19T14:30:15;26.10;99.90
11221;DHT22;8517;53.546;10.104;2022-08-19T14:32:42;26.10;99.90
11221;DHT22;8517;53.546;10.104;2022-08-19T14:35:10;26.10;99.90
11221;DHT22;8517;53.546;10.104;2022-08-19T14:37:38;26.10;99.90
11221;DHT22;8517;53.546;10.104;2022-08-19T14:40:06;26.00;99.90
11221;DHT22;8517;53.546;10.104;2022-08-19T14:42:33;26.00;99.90
11221;DHT22;8517;53.546;10.104;2022-08-19T14:45:06;26.00;99.90
11221;DHT22;8517;53.546;10.104;2022-08-19T14:47:47;25.90;99.90
11221;DHT22;8517;53.546;10.104;2022-08-19T14:50:13;25.90;99.90
11221;DHT22;8517;53.546;10.104;2022-08-19T14:52:40;25.80;99.90
11221;DHT22;8517;53.546;10.104;2022-08-19T14:55:08;25.80;99.90
11221;DHT22;8517;53.546;10.104;2022-08-19T14:57:36;25.80;99.90
11221;DHT22;8517;53.546;10.104;2022-08-19T15:00:06;25.70;99.90
11221;DHT22;8517;53.546;10.104;2022-08-19T15:02:33;25.70;99.90
11221;DHT22;8517;53.546;10.104;2022-08-19T15:04:59;25.80;99.90
11221;DHT22;8517;53.546;10.104;2022-08-19T15:07:26;25.70;99.90
11221;DHT22;8517;53.546;10.104;2022-08-19T15:09:53;25.70;99.90
11221;DHT22;8517;53.546;10.104;2022-08-19T15:12:20;25.70;99.90
11221;DHT22;8517;53.546;10.104;2022-08-19T15:14:47;25.80;99.90
11221;DHT22;8517;53.546;10.104;2022-08-19T15:17:17;25.80;99.90
11221;DHT22;8517;53.546;10.104;2022-08-19T15:19:45;25.80;99.90
11221;DHT22;8517;53.546;10.104;2022-08-19T15:22:12;25.90;99.90
11221;DHT22;8517;53.546;10.104;2022-08-19T15:24:39;25.90;99.90
11221;DHT22;8517;53.546;10.104;2022-08-19T15:27:08;25.90;99.90
11221;DHT22;8517;53.546;10.104;2022-08-19T15:29:35;25.90;99.90
11221;DHT22;8517;53.546;10.104;2022-08-19T15:32:02;25.90;99.90
11221;DHT22;8517;53.546;10.104;2022-08-19T15:34:33;26.00;99.90
11221;DHT22;8517;53.546;10.104;2022-08-19T15:37:00;26.00;99.90
11221;DHT22;8517;53.546;10.104;2022-08-19T15:39:29;26.00;99.90
11221;DHT22;8517;53.546;10.104;2022-08-19T15:41:55;26.00;99.90
11221;DHT22;8517;53.546;10.104;2022-08-19T15:44:25;26.00;99.90
11221;DHT22;8517;53.546;10.104;2022-08-19T15:46:52;26.00;99.90
11221;DHT22;8517;53.546;10.104;2022-08-19T15:49:19;26.00;99.90